N761RV KBCT-KPBI
Flight info
| Callsign | N761RV |
|---|---|
| Flight time | 0h 16m |
| Altitude | 3000 |
| Route | UGLEE |
| Aircraft | C208/L-SDFGR/C |
Departure
| Time | 2026-04-21 20:19 |
|---|---|
| Airport | Boca Raton Airport (KBCT) |
Arrival
| Time | 2026-04-21 20:35 |
|---|---|
| Airport | Palm Beach International Airport (KPBI) |
| Time | Latitude | Longitude | Altitude | Speed | Heading |
|---|---|---|---|---|---|
| 2026-04-21 20:06 | 26.38303 | -80.10572 | 26 ft | 0 kts | 44° |
| 2026-04-21 20:14 | 26.38309 | -80.10561 | 26 ft | 6 kts | 74° |
| 2026-04-21 20:14 | 26.38258 | -80.10497 | 30 ft | 16 kts | 157° |
| 2026-04-21 20:15 | 26.38148 | -80.10547 | 26 ft | 24 kts | 226° |
| 2026-04-21 20:15 | 26.38040 | -80.10665 | 24 ft | 17 kts | 224° |
| 2026-04-21 20:15 | 26.37937 | -80.10777 | 26 ft | 22 kts | 224° |
| 2026-04-21 20:15 | 26.37828 | -80.10895 | 23 ft | 19 kts | 223° |
| 2026-04-21 20:16 | 26.37721 | -80.11011 | 23 ft | 19 kts | 224° |
| 2026-04-21 20:16 | 26.37656 | -80.11082 | 23 ft | 5 kts | 223° |
| 2026-04-21 20:16 | 26.37584 | -80.11159 | 23 ft | 26 kts | 224° |
| 2026-04-21 20:16 | 26.37463 | -80.11292 | 24 ft | 19 kts | 225° |
| 2026-04-21 20:17 | 26.37369 | -80.11393 | 24 ft | 20 kts | 225° |
| 2026-04-21 20:17 | 26.37289 | -80.11471 | 24 ft | 8 kts | 191° |
| 2026-04-21 20:17 | 26.37257 | -80.11412 | 24 ft | 6 kts | 46° |
| 2026-04-21 20:17 | 26.37259 | -80.11410 | 24 ft | 0 kts | 44° |
| 2026-04-21 20:18 | 26.37261 | -80.11408 | 24 ft | 3 kts | 44° |
| 2026-04-21 20:18 | 26.37378 | -80.11280 | 25 ft | 49 kts | 44° |
| 2026-04-21 20:19 | 26.37688 | -80.10946 | 157 ft | 66 kts | 44° |
| 2026-04-21 20:19 | 26.38056 | -80.10543 | 373 ft | 88 kts | 44° |
| 2026-04-21 20:19 | 26.38520 | -80.10046 | 841 ft | 90 kts | 49° |
| 2026-04-21 20:19 | 26.38951 | -80.09573 | 1382 ft | 86 kts | 47° |
| 2026-04-21 20:20 | 26.39400 | -80.09108 | 1811 ft | 89 kts | 46° |
| 2026-04-21 20:20 | 26.39879 | -80.08650 | 2295 ft | 94 kts | 45° |
| 2026-04-21 20:20 | 26.40548 | -80.08311 | 2554 ft | 121 kts | 17° |
| 2026-04-21 20:20 | 26.41463 | -80.08465 | 2809 ft | 144 kts | 351° |
| 2026-04-21 20:21 | 26.42470 | -80.08793 | 3019 ft | 162 kts | 352° |
| 2026-04-21 20:21 | 26.43626 | -80.09155 | 3013 ft | 174 kts | 352° |
| 2026-04-21 20:21 | 26.44668 | -80.09490 | 3001 ft | 150 kts | 352° |
| 2026-04-21 20:21 | 26.45708 | -80.09800 | 3005 ft | 160 kts | 353° |
| 2026-04-21 20:22 | 26.46805 | -80.10134 | 3013 ft | 166 kts | 352° |
| 2026-04-21 20:22 | 26.49096 | -80.10609 | 3027 ft | 170 kts | 356° |
| 2026-04-21 20:22 | 26.50251 | -80.10876 | 3023 ft | 168 kts | 355° |
| 2026-04-21 20:23 | 26.51348 | -80.11131 | 3017 ft | 155 kts | 356° |
| 2026-04-21 20:23 | 26.52409 | -80.11360 | 3012 ft | 159 kts | 356° |
| 2026-04-21 20:23 | 26.53525 | -80.11588 | 3014 ft | 166 kts | 358° |
| 2026-04-21 20:23 | 26.54672 | -80.11848 | 3019 ft | 170 kts | 355° |
| 2026-04-21 20:24 | 26.55835 | -80.12110 | 3015 ft | 171 kts | 355° |
| 2026-04-21 20:24 | 26.57003 | -80.12355 | 3021 ft | 171 kts | 357° |
| 2026-04-21 20:24 | 26.58174 | -80.12602 | 3017 ft | 172 kts | 356° |
| 2026-04-21 20:24 | 26.59347 | -80.12864 | 3014 ft | 172 kts | 354° |
| 2026-04-21 20:25 | 26.60515 | -80.13125 | 3015 ft | 171 kts | 356° |
| 2026-04-21 20:25 | 26.61684 | -80.13370 | 3015 ft | 170 kts | 356° |
| 2026-04-21 20:25 | 26.62821 | -80.13714 | 3011 ft | 179 kts | 340° |
| 2026-04-21 20:25 | 26.63596 | -80.14803 | 2996 ft | 186 kts | 291° |
| 2026-04-21 20:26 | 26.63707 | -80.16249 | 2999 ft | 188 kts | 275° |
| 2026-04-21 20:26 | 26.63745 | -80.17718 | 3007 ft | 193 kts | 276° |
| 2026-04-21 20:26 | 26.63784 | -80.19245 | 3012 ft | 199 kts | 275° |
| 2026-04-21 20:26 | 26.63829 | -80.20802 | 3015 ft | 201 kts | 275° |
| 2026-04-21 20:27 | 26.63871 | -80.22366 | 3015 ft | 198 kts | 275° |
| 2026-04-21 20:27 | 26.63918 | -80.23862 | 3005 ft | 189 kts | 275° |
| 2026-04-21 20:27 | 26.63974 | -80.25326 | 2987 ft | 188 kts | 275° |
| 2026-04-21 20:27 | 26.64068 | -80.26804 | 2886 ft | 192 kts | 287° |
| 2026-04-21 20:28 | 26.64774 | -80.27989 | 2762 ft | 179 kts | 331° |
| 2026-04-21 20:28 | 26.65718 | -80.28636 | 2647 ft | 145 kts | 339° |
| 2026-04-21 20:28 | 26.66568 | -80.29194 | 2533 ft | 139 kts | 345° |
| 2026-04-21 20:28 | 26.67446 | -80.29293 | 2415 ft | 118 kts | 28° |
| 2026-04-21 20:29 | 26.67929 | -80.28654 | 2310 ft | 110 kts | 66° |
| 2026-04-21 20:29 | 26.68248 | -80.27856 | 2211 ft | 111 kts | 65° |
| 2026-04-21 20:29 | 26.68570 | -80.27076 | 2115 ft | 110 kts | 64° |
| 2026-04-21 20:29 | 26.68849 | -80.26280 | 2016 ft | 113 kts | 76° |
| 2026-04-21 20:30 | 26.68909 | -80.25347 | 2020 ft | 128 kts | 86° |
| 2026-04-21 20:30 | 26.68845 | -80.24316 | 2016 ft | 136 kts | 90° |
| 2026-04-21 20:30 | 26.68782 | -80.23280 | 2012 ft | 124 kts | 89° |
| 2026-04-21 20:30 | 26.68737 | -80.22372 | 1956 ft | 114 kts | 89° |
| 2026-04-21 20:31 | 26.68692 | -80.21501 | 1872 ft | 112 kts | 89° |
| 2026-04-21 20:31 | 26.68644 | -80.20627 | 1788 ft | 115 kts | 90° |
| 2026-04-21 20:31 | 26.68597 | -80.19730 | 1725 ft | 116 kts | 86° |
| 2026-04-21 20:31 | 26.68581 | -80.18826 | 1693 ft | 122 kts | 86° |
| 2026-04-21 20:32 | 26.68571 | -80.17909 | 1598 ft | 116 kts | 85° |
| 2026-04-21 20:32 | 26.68569 | -80.16983 | 1383 ft | 120 kts | 87° |
| 2026-04-21 20:32 | 26.68549 | -80.16093 | 1138 ft | 107 kts | 88° |
| 2026-04-21 20:32 | 26.68515 | -80.15316 | 959 ft | 91 kts | 86° |
| 2026-04-21 20:33 | 26.68469 | -80.14643 | 853 ft | 82 kts | 88° |
| 2026-04-21 20:33 | 26.68442 | -80.14015 | 749 ft | 78 kts | 83° |
| 2026-04-21 20:33 | 26.68412 | -80.13472 | 697 ft | 64 kts | 80° |
| 2026-04-21 20:33 | 26.68399 | -80.12957 | 613 ft | 70 kts | 79° |
| 2026-04-21 20:34 | 26.68388 | -80.12409 | 487 ft | 70 kts | 76° |
| 2026-04-21 20:34 | 26.68361 | -80.11852 | 381 ft | 74 kts | 80° |
| 2026-04-21 20:34 | 26.68336 | -80.11319 | 239 ft | 63 kts | 79° |
| 2026-04-21 20:34 | 26.68315 | -80.10786 | 125 ft | 72 kts | 88° |
| 2026-04-21 20:35 | 26.68292 | -80.10266 | 41 ft | 63 kts | 86° |
| 2026-04-21 20:35 | 26.68273 | -80.09812 | 21 ft | 52 kts | 89° |
| 2026-04-21 20:35 | 26.68267 | -80.09603 | 20 ft | 28 kts | 93° |
| 2026-04-21 20:35 | 26.68238 | -80.09351 | 21 ft | 25 kts | 140° |
| 2026-04-21 20:36 | 26.68159 | -80.09309 | 20 ft | 15 kts | 217° |
| 2026-04-21 20:36 | 26.68149 | -80.09400 | 20 ft | 13 kts | 274° |
| 2026-04-21 20:36 | 26.68155 | -80.09553 | 20 ft | 20 kts | 273° |
| 2026-04-21 20:36 | 26.68102 | -80.09652 | 20 ft | 21 kts | 179° |
| 2026-04-21 20:37 | 26.68033 | -80.09607 | 20 ft | 17 kts | 91° |
| 2026-04-21 20:37 | 26.67954 | -80.09490 | 22 ft | 9 kts | 109° |
| 2026-04-21 20:37 | 26.67954 | -80.09478 | 21 ft | 0 kts | 73° |